sensor_id;sensor_type;location;lat;lon;timestamp;P1;durP1;ratioP1;P2;durP2;ratioP2
3689;SDS011;1861;50.240;8.596;2023-04-25T00:00:25;6.97;;;3.33;;
3689;SDS011;1861;50.240;8.596;2023-04-25T00:02:53;11.93;;;3.10;;
3689;SDS011;1861;50.240;8.596;2023-04-25T00:05:23;4.50;;;3.50;;
3689;SDS011;1861;50.240;8.596;2023-04-25T00:07:52;4.20;;;3.20;;
3689;SDS011;1861;50.240;8.596;2023-04-25T00:10:21;4.17;;;3.33;;
3689;SDS011;1861;50.240;8.596;2023-04-25T00:12:49;3.30;;;2.83;;
3689;SDS011;1861;50.240;8.596;2023-04-25T00:15:18;8.67;;;3.20;;
3689;SDS011;1861;50.240;8.596;2023-04-25T00:17:46;3.87;;;3.20;;
3689;SDS011;1861;50.240;8.596;2023-04-25T00:20:14;3.83;;;3.10;;
3689;SDS011;1861;50.240;8.596;2023-04-25T00:22:42;3.10;;;2.80;;
3689;SDS011;1861;50.240;8.596;2023-04-25T00:25:12;3.83;;;3.10;;
3689;SDS011;1861;50.240;8.596;2023-04-25T00:27:40;3.70;;;2.87;;
3689;SDS011;1861;50.240;8.596;2023-04-25T00:30:09;4.20;;;3.20;;
3689;SDS011;1861;50.240;8.596;2023-04-25T00:32:38;5.43;;;3.20;;
3689;SDS011;1861;50.240;8.596;2023-04-25T00:35:07;3.13;;;2.80;;
3689;SDS011;1861;50.240;8.596;2023-04-25T00:37:36;5.60;;;3.10;;
3689;SDS011;1861;50.240;8.596;2023-04-25T00:40:05;3.63;;;2.70;;
3689;SDS011;1861;50.240;8.596;2023-04-25T00:42:36;4.33;;;3.07;;
3689;SDS011;1861;50.240;8.596;2023-04-25T00:45:05;4.53;;;3.30;;
3689;SDS011;1861;50.240;8.596;2023-04-25T00:47:35;9.93;;;4.17;;
3689;SDS011;1861;50.240;8.596;2023-04-25T00:50:04;4.73;;;3.40;;
3689;SDS011;1861;50.240;8.596;2023-04-25T00:52:33;7.40;;;3.80;;
3689;SDS011;1861;50.240;8.596;2023-04-25T00:55:02;8.43;;;3.40;;
3689;SDS011;1861;50.240;8.596;2023-04-25T00:57:30;5.57;;;3.97;;
3689;SDS011;1861;50.240;8.596;2023-04-25T00:59:59;5.97;;;3.50;;
3689;SDS011;1861;50.240;8.596;2023-04-25T01:02:28;3.57;;;3.10;;
3689;SDS011;1861;50.240;8.596;2023-04-25T01:04:57;4.80;;;3.30;;
3689;SDS011;1861;50.240;8.596;2023-04-25T01:07:27;7.70;;;3.70;;
3689;SDS011;1861;50.240;8.596;2023-04-25T01:09:55;4.07;;;3.40;;
3689;SDS011;1861;50.240;8.596;2023-04-25T01:12:24;4.80;;;3.73;;
3689;SDS011;1861;50.240;8.596;2023-04-25T01:14:52;6.00;;;3.40;;
3689;SDS011;1861;50.240;8.596;2023-04-25T01:17:21;6.40;;;3.63;;
3689;SDS011;1861;50.240;8.596;2023-04-25T01:19:50;2.93;;;2.73;;
3689;SDS011;1861;50.240;8.596;2023-04-25T01:22:19;5.13;;;2.80;;
3689;SDS011;1861;50.240;8.596;2023-04-25T01:24:48;4.50;;;3.20;;
3689;SDS011;1861;50.240;8.596;2023-04-25T01:27:16;9.40;;;3.83;;
3689;SDS011;1861;50.240;8.596;2023-04-25T01:29:45;10.00;;;2.97;;
3689;SDS011;1861;50.240;8.596;2023-04-25T01:32:14;6.57;;;3.13;;
3689;SDS011;1861;50.240;8.596;2023-04-25T01:34:42;4.70;;;2.63;;
3689;SDS011;1861;50.240;8.596;2023-04-25T01:37:10;3.83;;;2.73;;
3689;SDS011;1861;50.240;8.596;2023-04-25T01:39:40;8.57;;;3.50;;
3689;SDS011;1861;50.240;8.596;2023-04-25T01:42:08;5.57;;;2.80;;
3689;SDS011;1861;50.240;8.596;2023-04-25T01:44:36;5.87;;;3.50;;
3689;SDS011;1861;50.240;8.596;2023-04-25T01:47:05;6.57;;;3.30;;
3689;SDS011;1861;50.240;8.596;2023-04-25T01:49:33;6.23;;;4.03;;
3689;SDS011;1861;50.240;8.596;2023-04-25T01:52:01;7.50;;;3.37;;
3689;SDS011;1861;50.240;8.596;2023-04-25T01:54:30;5.00;;;3.60;;
3689;SDS011;1861;50.240;8.596;2023-04-25T01:56:59;5.17;;;3.63;;
3689;SDS011;1861;50.240;8.596;2023-04-25T01:59:28;7.00;;;3.40;;
3689;SDS011;1861;50.240;8.596;2023-04-25T02:02:06;7.60;;;3.77;;
3689;SDS011;1861;50.240;8.596;2023-04-25T02:04:35;7.80;;;3.13;;
3689;SDS011;1861;50.240;8.596;2023-04-25T02:07:05;8.20;;;3.47;;
3689;SDS011;1861;50.240;8.596;2023-04-25T02:09:46;6.50;;;3.60;;
3689;SDS011;1861;50.240;8.596;2023-04-25T02:12:16;7.90;;;3.57;;
3689;SDS011;1861;50.240;8.596;2023-04-25T02:15:08;4.50;;;3.37;;
3689;SDS011;1861;50.240;8.596;2023-04-25T02:17:43;6.07;;;3.80;;
3689;SDS011;1861;50.240;8.596;2023-04-25T02:20:12;4.47;;;3.20;;
3689;SDS011;1861;50.240;8.596;2023-04-25T02:22:42;6.17;;;3.63;;
3689;SDS011;1861;50.240;8.596;2023-04-25T02:25:10;7.23;;;3.50;;
3689;SDS011;1861;50.240;8.596;2023-04-25T02:27:41;9.40;;;4.13;;
3689;SDS011;1861;50.240;8.596;2023-04-25T02:30:10;5.67;;;3.40;;
3689;SDS011;1861;50.240;8.596;2023-04-25T02:32:38;9.63;;;4.07;;
3689;SDS011;1861;50.240;8.596;2023-04-25T02:35:08;8.87;;;3.27;;
3689;SDS011;1861;50.240;8.596;2023-04-25T02:37:37;6.33;;;2.97;;
3689;SDS011;1861;50.240;8.596;2023-04-25T02:40:06;7.70;;;3.30;;
3689;SDS011;1861;50.240;8.596;2023-04-25T02:42:35;8.67;;;3.70;;
3689;SDS011;1861;50.240;8.596;2023-04-25T02:45:05;8.43;;;4.00;;
3689;SDS011;1861;50.240;8.596;2023-04-25T02:47:34;5.20;;;3.00;;
3689;SDS011;1861;50.240;8.596;2023-04-25T02:50:02;6.73;;;3.90;;
3689;SDS011;1861;50.240;8.596;2023-04-25T02:52:31;6.00;;;3.80;;
3689;SDS011;1861;50.240;8.596;2023-04-25T02:55:08;4.37;;;3.07;;
3689;SDS011;1861;50.240;8.596;2023-04-25T02:57:37;12.57;;;3.77;;
3689;SDS011;1861;50.240;8.596;2023-04-25T03:00:07;6.47;;;3.73;;
3689;SDS011;1861;50.240;8.596;2023-04-25T03:02:38;5.73;;;3.07;;
3689;SDS011;1861;50.240;8.596;2023-04-25T03:05:06;6.07;;;3.47;;
3689;SDS011;1861;50.240;8.596;2023-04-25T03:07:35;9.10;;;4.17;;
3689;SDS011;1861;50.240;8.596;2023-04-25T03:10:06;6.00;;;3.40;;
3689;SDS011;1861;50.240;8.596;2023-04-25T03:12:35;6.53;;;3.80;;
3689;SDS011;1861;50.240;8.596;2023-04-25T03:15:04;6.60;;;3.83;;
3689;SDS011;1861;50.240;8.596;2023-04-25T03:17:35;4.23;;;3.03;;
3689;SDS011;1861;50.240;8.596;2023-04-25T03:20:03;5.93;;;3.40;;
3689;SDS011;1861;50.240;8.596;2023-04-25T03:22:34;7.67;;;3.10;;
3689;SDS011;1861;50.240;8.596;2023-04-25T03:25:02;10.43;;;3.90;;
3689;SDS011;1861;50.240;8.596;2023-04-25T03:27:31;10.87;;;4.00;;
3689;SDS011;1861;50.240;8.596;2023-04-25T03:29:59;9.10;;;3.70;;
3689;SDS011;1861;50.240;8.596;2023-04-25T03:32:29;3.20;;;2.40;;
3689;SDS011;1861;50.240;8.596;2023-04-25T03:34:57;6.37;;;3.60;;
3689;SDS011;1861;50.240;8.596;2023-04-25T03:37:26;7.27;;;3.00;;
3689;SDS011;1861;50.240;8.596;2023-04-25T03:39:54;5.10;;;2.80;;
3689;SDS011;1861;50.240;8.596;2023-04-25T03:42:28;8.37;;;3.70;;
3689;SDS011;1861;50.240;8.596;2023-04-25T03:44:56;8.70;;;3.20;;
3689;SDS011;1861;50.240;8.596;2023-04-25T03:47:24;4.70;;;3.30;;
3689;SDS011;1861;50.240;8.596;2023-04-25T03:49:54;4.83;;;3.20;;
3689;SDS011;1861;50.240;8.596;2023-04-25T03:52:23;7.80;;;3.83;;
3689;SDS011;1861;50.240;8.596;2023-04-25T03:54:52;9.93;;;3.30;;
3689;SDS011;1861;50.240;8.596;2023-04-25T03:57:22;5.57;;;3.00;;
3689;SDS011;1861;50.240;8.596;2023-04-25T03:59:53;7.53;;;3.33;;
3689;SDS011;1861;50.240;8.596;2023-04-25T04:02:22;7.43;;;3.10;;
3689;SDS011;1861;50.240;8.596;2023-04-25T04:04:52;6.43;;;3.20;;
3689;SDS011;1861;50.240;8.596;2023-04-25T04:07:23;6.93;;;3.47;;
3689;SDS011;1861;50.240;8.596;2023-04-25T04:09:55;4.03;;;2.50;;
3689;SDS011;1861;50.240;8.596;2023-04-25T04:12:28;5.93;;;3.00;;
3689;SDS011;1861;50.240;8.596;2023-04-25T04:14:57;8.40;;;3.77;;
3689;SDS011;1861;50.240;8.596;2023-04-25T04:17:25;9.27;;;4.17;;
3689;SDS011;1861;50.240;8.596;2023-04-25T04:19:53;6.77;;;3.60;;
3689;SDS011;1861;50.240;8.596;2023-04-25T04:22:23;10.47;;;3.00;;
3689;SDS011;1861;50.240;8.596;2023-04-25T04:24:55;5.03;;;2.90;;
3689;SDS011;1861;50.240;8.596;2023-04-25T04:27:52;7.63;;;3.20;;
3689;SDS011;1861;50.240;8.596;2023-04-25T04:30:27;6.37;;;3.10;;
3689;SDS011;1861;50.240;8.596;2023-04-25T04:32:59;6.80;;;3.60;;
3689;SDS011;1861;50.240;8.596;2023-04-25T04:35:28;7.83;;;3.40;;
3689;SDS011;1861;50.240;8.596;2023-04-25T04:37:58;8.53;;;2.87;;
3689;SDS011;1861;50.240;8.596;2023-04-25T04:40:30;6.70;;;3.70;;
3689;SDS011;1861;50.240;8.596;2023-04-25T04:43:15;11.93;;;2.77;;
3689;SDS011;1861;50.240;8.596;2023-04-25T04:45:50;6.13;;;2.93;;
3689;SDS011;1861;50.240;8.596;2023-04-25T04:48:37;9.90;;;3.37;;
3689;SDS011;1861;50.240;8.596;2023-04-25T04:51:29;7.10;;;3.17;;
3689;SDS011;1861;50.240;8.596;2023-04-25T04:53:59;12.03;;;3.63;;
3689;SDS011;1861;50.240;8.596;2023-04-25T04:56:47;19.60;;;3.70;;
3689;SDS011;1861;50.240;8.596;2023-04-25T04:59:24;5.13;;;3.00;;
3689;SDS011;1861;50.240;8.596;2023-04-25T05:02:20;10.37;;;2.63;;
3689;SDS011;1861;50.240;8.596;2023-04-25T05:05:15;9.83;;;3.33;;
3689;SDS011;1861;50.240;8.596;2023-04-25T05:08:09;5.30;;;2.80;;
3689;SDS011;1861;50.240;8.596;2023-04-25T05:11:01;4.30;;;2.47;;
3689;SDS011;1861;50.240;8.596;2023-04-25T05:13:52;10.37;;;2.50;;
3689;SDS011;1861;50.240;8.596;2023-04-25T05:16:46;3.97;;;3.20;;
3689;SDS011;1861;50.240;8.596;2023-04-25T05:19:38;4.03;;;2.53;;
3689;SDS011;1861;50.240;8.596;2023-04-25T05:22:18;7.30;;;2.97;;
3689;SDS011;1861;50.240;8.596;2023-04-25T05:25:15;2.57;;;2.37;;
3689;SDS011;1861;50.240;8.596;2023-04-25T05:28:08;12.87;;;2.70;;
3689;SDS011;1861;50.240;8.596;2023-04-25T05:30:43;4.70;;;2.50;;
3689;SDS011;1861;50.240;8.596;2023-04-25T05:33:20;7.83;;;2.27;;
3689;SDS011;1861;50.240;8.596;2023-04-25T05:35:48;5.93;;;2.20;;
3689;SDS011;1861;50.240;8.596;2023-04-25T05:38:16;5.90;;;3.00;;
3689;SDS011;1861;50.240;8.596;2023-04-25T05:41:04;2.83;;;2.20;;
3689;SDS011;1861;50.240;8.596;2023-04-25T05:43:41;19.73;;;3.10;;
3689;SDS011;1861;50.240;8.596;2023-04-25T05:46:39;5.27;;;1.97;;
3689;SDS011;1861;50.240;8.596;2023-04-25T05:49:39;5.17;;;2.10;;
3689;SDS011;1861;50.240;8.596;2023-04-25T05:52:19;6.83;;;1.90;;
3689;SDS011;1861;50.240;8.596;2023-04-25T05:55:00;8.30;;;2.33;;
3689;SDS011;1861;50.240;8.596;2023-04-25T05:57:30;3.27;;;2.20;;
3689;SDS011;1861;50.240;8.596;2023-04-25T06:00:00;7.07;;;2.00;;
3689;SDS011;1861;50.240;8.596;2023-04-25T06:02:43;4.10;;;1.53;;
3689;SDS011;1861;50.240;8.596;2023-04-25T06:05:13;5.23;;;3.10;;
3689;SDS011;1861;50.240;8.596;2023-04-25T06:07:41;3.40;;;1.80;;
3689;SDS011;1861;50.240;8.596;2023-04-25T06:10:10;2.90;;;1.50;;
3689;SDS011;1861;50.240;8.596;2023-04-25T06:12:38;7.00;;;1.83;;
3689;SDS011;1861;50.240;8.596;2023-04-25T06:15:08;5.00;;;1.90;;
3689;SDS011;1861;50.240;8.596;2023-04-25T06:17:53;2.03;;;1.50;;
3689;SDS011;1861;50.240;8.596;2023-04-25T06:20:21;3.93;;;1.80;;
3689;SDS011;1861;50.240;8.596;2023-04-25T06:22:52;2.37;;;1.80;;
3689;SDS011;1861;50.240;8.596;2023-04-25T06:25:27;2.17;;;1.60;;
3689;SDS011;1861;50.240;8.596;2023-04-25T06:27:55;5.27;;;1.50;;
3689;SDS011;1861;50.240;8.596;2023-04-25T06:30:25;3.73;;;1.53;;
3689;SDS011;1861;50.240;8.596;2023-04-25T06:32:58;4.50;;;2.17;;
3689;SDS011;1861;50.240;8.596;2023-04-25T06:35:28;4.50;;;1.67;;
3689;SDS011;1861;50.240;8.596;2023-04-25T06:37:56;3.70;;;1.63;;
3689;SDS011;1861;50.240;8.596;2023-04-25T06:40:24;3.60;;;1.90;;
3689;SDS011;1861;50.240;8.596;2023-04-25T06:42:53;3.37;;;1.80;;
3689;SDS011;1861;50.240;8.596;2023-04-25T06:45:51;4.30;;;2.23;;
3689;SDS011;1861;50.240;8.596;2023-04-25T06:48:21;6.50;;;2.13;;
3689;SDS011;1861;50.240;8.596;2023-04-25T06:50:49;6.43;;;2.27;;
3689;SDS011;1861;50.240;8.596;2023-04-25T06:53:18;4.83;;;1.80;;
3689;SDS011;1861;50.240;8.596;2023-04-25T06:55:52;2.90;;;2.10;;
3689;SDS011;1861;50.240;8.596;2023-04-25T06:58:22;5.40;;;2.20;;
3689;SDS011;1861;50.240;8.596;2023-04-25T07:01:05;4.53;;;2.60;;
3689;SDS011;1861;50.240;8.596;2023-04-25T07:03:33;4.80;;;2.33;;
3689;SDS011;1861;50.240;8.596;2023-04-25T07:06:08;5.77;;;2.37;;
3689;SDS011;1861;50.240;8.596;2023-04-25T07:08:36;5.77;;;2.70;;
3689;SDS011;1861;50.240;8.596;2023-04-25T07:11:04;7.50;;;3.10;;
3689;SDS011;1861;50.240;8.596;2023-04-25T07:13:32;3.10;;;2.23;;
3689;SDS011;1861;50.240;8.596;2023-04-25T07:16:01;3.57;;;2.27;;
3689;SDS011;1861;50.240;8.596;2023-04-25T07:18:32;8.60;;;2.70;;
3689;SDS011;1861;50.240;8.596;2023-04-25T07:21:00;6.33;;;2.03;;
3689;SDS011;1861;50.240;8.596;2023-04-25T07:23:30;6.13;;;2.80;;
3689;SDS011;1861;50.240;8.596;2023-04-25T07:26:01;6.20;;;1.87;;
3689;SDS011;1861;50.240;8.596;2023-04-25T07:28:29;3.60;;;2.37;;
3689;SDS011;1861;50.240;8.596;2023-04-25T07:30:57;6.27;;;2.23;;
3689;SDS011;1861;50.240;8.596;2023-04-25T07:33:25;4.23;;;1.90;;
3689;SDS011;1861;50.240;8.596;2023-04-25T07:35:55;2.80;;;1.60;;
3689;SDS011;1861;50.240;8.596;2023-04-25T07:38:24;5.63;;;2.73;;
3689;SDS011;1861;50.240;8.596;2023-04-25T07:40:52;5.17;;;2.50;;
3689;SDS011;1861;50.240;8.596;2023-04-25T07:43:20;8.30;;;2.70;;
3689;SDS011;1861;50.240;8.596;2023-04-25T07:45:54;4.60;;;2.30;;
3689;SDS011;1861;50.240;8.596;2023-04-25T07:48:25;5.13;;;3.00;;
3689;SDS011;1861;50.240;8.596;2023-04-25T07:50:53;8.97;;;2.83;;
3689;SDS011;1861;50.240;8.596;2023-04-25T07:53:22;2.90;;;2.60;;
3689;SDS011;1861;50.240;8.596;2023-04-25T07:55:55;4.27;;;2.60;;
3689;SDS011;1861;50.240;8.596;2023-04-25T07:58:23;7.50;;;2.33;;
3689;SDS011;1861;50.240;8.596;2023-04-25T08:00:56;5.37;;;2.60;;
3689;SDS011;1861;50.240;8.596;2023-04-25T08:03:48;2.93;;;2.37;;
3689;SDS011;1861;50.240;8.596;2023-04-25T08:06:35;5.20;;;2.70;;
3689;SDS011;1861;50.240;8.596;2023-04-25T08:09:09;5.13;;;2.93;;
3689;SDS011;1861;50.240;8.596;2023-04-25T08:11:39;6.57;;;2.63;;
3689;SDS011;1861;50.240;8.596;2023-04-25T08:14:10;5.03;;;2.50;;
3689;SDS011;1861;50.240;8.596;2023-04-25T08:16:40;3.27;;;2.60;;
3689;SDS011;1861;50.240;8.596;2023-04-25T08:19:08;5.90;;;3.07;;
3689;SDS011;1861;50.240;8.596;2023-04-25T08:21:37;8.07;;;2.57;;
3689;SDS011;1861;50.240;8.596;2023-04-25T08:24:11;6.97;;;3.23;;
3689;SDS011;1861;50.240;8.596;2023-04-25T08:26:40;6.77;;;3.90;;
3689;SDS011;1861;50.240;8.596;2023-04-25T08:29:13;3.67;;;2.93;;
3689;SDS011;1861;50.240;8.596;2023-04-25T08:31:42;7.90;;;2.93;;
3689;SDS011;1861;50.240;8.596;2023-04-25T08:34:12;5.30;;;3.30;;
3689;SDS011;1861;50.240;8.596;2023-04-25T08:36:42;7.33;;;3.40;;
3689;SDS011;1861;50.240;8.596;2023-04-25T08:39:38;6.73;;;3.33;;
3689;SDS011;1861;50.240;8.596;2023-04-25T08:42:30;7.00;;;4.10;;
3689;SDS011;1861;50.240;8.596;2023-04-25T08:45:02;11.03;;;3.63;;
3689;SDS011;1861;50.240;8.596;2023-04-25T08:47:36;6.07;;;3.43;;
3689;SDS011;1861;50.240;8.596;2023-04-25T08:50:06;4.00;;;3.07;;
3689;SDS011;1861;50.240;8.596;2023-04-25T08:52:36;13.83;;;3.60;;
3689;SDS011;1861;50.240;8.596;2023-04-25T08:55:09;7.57;;;3.47;;
3689;SDS011;1861;50.240;8.596;2023-04-25T08:57:40;3.50;;;2.80;;
3689;SDS011;1861;50.240;8.596;2023-04-25T09:00:10;4.67;;;3.40;;
3689;SDS011;1861;50.240;8.596;2023-04-25T09:02:42;5.30;;;3.47;;
3689;SDS011;1861;50.240;8.596;2023-04-25T09:05:12;6.87;;;3.03;;
3689;SDS011;1861;50.240;8.596;2023-04-25T09:07:41;6.00;;;3.60;;
3689;SDS011;1861;50.240;8.596;2023-04-25T09:10:11;4.63;;;2.97;;
3689;SDS011;1861;50.240;8.596;2023-04-25T09:12:39;4.83;;;2.90;;
3689;SDS011;1861;50.240;8.596;2023-04-25T09:15:09;3.23;;;2.37;;
3689;SDS011;1861;50.240;8.596;2023-04-25T09:18:08;6.63;;;2.93;;
3689;SDS011;1861;50.240;8.596;2023-04-25T09:20:41;7.50;;;3.30;;
3689;SDS011;1861;50.240;8.596;2023-04-25T09:23:28;6.50;;;2.60;;
3689;SDS011;1861;50.240;8.596;2023-04-25T09:25:58;4.67;;;2.77;;
3689;SDS011;1861;50.240;8.596;2023-04-25T09:28:26;4.40;;;2.47;;
3689;SDS011;1861;50.240;8.596;2023-04-25T09:30:58;5.07;;;2.90;;
3689;SDS011;1861;50.240;8.596;2023-04-25T09:33:32;3.23;;;2.50;;
3689;SDS011;1861;50.240;8.596;2023-04-25T09:36:04;3.77;;;2.50;;
3689;SDS011;1861;50.240;8.596;2023-04-25T09:38:52;6.43;;;2.90;;
3689;SDS011;1861;50.240;8.596;2023-04-25T09:41:28;6.27;;;3.27;;
3689;SDS011;1861;50.240;8.596;2023-04-25T09:43:59;4.63;;;2.60;;
3689;SDS011;1861;50.240;8.596;2023-04-25T09:46:35;3.20;;;2.90;;
3689;SDS011;1861;50.240;8.596;2023-04-25T09:49:12;3.90;;;2.73;;
3689;SDS011;1861;50.240;8.596;2023-04-25T09:51:54;5.00;;;2.30;;
3689;SDS011;1861;50.240;8.596;2023-04-25T09:54:26;4.93;;;3.13;;
3689;SDS011;1861;50.240;8.596;2023-04-25T09:57:16;5.50;;;2.80;;
3689;SDS011;1861;50.240;8.596;2023-04-25T09:59:47;4.43;;;2.90;;
3689;SDS011;1861;50.240;8.596;2023-04-25T10:02:17;6.77;;;3.37;;
3689;SDS011;1861;50.240;8.596;2023-04-25T10:04:49;7.13;;;3.10;;
3689;SDS011;1861;50.240;8.596;2023-04-25T10:07:29;5.43;;;3.47;;
3689;SDS011;1861;50.240;8.596;2023-04-25T10:10:00;3.20;;;2.43;;
3689;SDS011;1861;50.240;8.596;2023-04-25T10:12:32;5.87;;;2.53;;
3689;SDS011;1861;50.240;8.596;2023-04-25T10:15:01;6.00;;;2.70;;
3689;SDS011;1861;50.240;8.596;2023-04-25T10:17:31;3.23;;;2.23;;
3689;SDS011;1861;50.240;8.596;2023-04-25T10:20:00;3.93;;;2.10;;
3689;SDS011;1861;50.240;8.596;2023-04-25T10:22:31;2.83;;;1.90;;
3689;SDS011;1861;50.240;8.596;2023-04-25T10:25:03;8.13;;;2.77;;
3689;SDS011;1861;50.240;8.596;2023-04-25T10:27:34;4.13;;;2.77;;
3689;SDS011;1861;50.240;8.596;2023-04-25T10:30:03;4.00;;;2.33;;
3689;SDS011;1861;50.240;8.596;2023-04-25T10:32:36;6.00;;;2.57;;
3689;SDS011;1861;50.240;8.596;2023-04-25T10:35:11;4.50;;;2.70;;
3689;SDS011;1861;50.240;8.596;2023-04-25T10:37:56;4.37;;;2.13;;
3689;SDS011;1861;50.240;8.596;2023-04-25T10:40:25;6.90;;;2.47;;
3689;SDS011;1861;50.240;8.596;2023-04-25T10:42:55;3.43;;;2.27;;
3689;SDS011;1861;50.240;8.596;2023-04-25T10:45:52;4.90;;;1.83;;
3689;SDS011;1861;50.240;8.596;2023-04-25T10:48:26;6.47;;;2.00;;
3689;SDS011;1861;50.240;8.596;2023-04-25T10:51:06;3.83;;;2.23;;
3689;SDS011;1861;50.240;8.596;2023-04-25T10:53:35;4.80;;;2.10;;
3689;SDS011;1861;50.240;8.596;2023-04-25T10:56:09;8.13;;;2.50;;
3689;SDS011;1861;50.240;8.596;2023-04-25T10:58:44;2.70;;;1.97;;
3689;SDS011;1861;50.240;8.596;2023-04-25T11:01:15;2.10;;;1.90;;
3689;SDS011;1861;50.240;8.596;2023-04-25T11:03:49;4.10;;;1.97;;
3689;SDS011;1861;50.240;8.596;2023-04-25T11:06:27;3.57;;;1.67;;
3689;SDS011;1861;50.240;8.596;2023-04-25T11:09:00;5.17;;;1.40;;
3689;SDS011;1861;50.240;8.596;2023-04-25T11:11:29;1.93;;;1.67;;
3689;SDS011;1861;50.240;8.596;2023-04-25T11:13:58;2.57;;;1.70;;
3689;SDS011;1861;50.240;8.596;2023-04-25T11:16:27;3.20;;;1.73;;
3689;SDS011;1861;50.240;8.596;2023-04-25T11:18:57;3.57;;;2.00;;
3689;SDS011;1861;50.240;8.596;2023-04-25T11:21:26;2.53;;;1.60;;
3689;SDS011;1861;50.240;8.596;2023-04-25T11:23:54;3.30;;;1.90;;
3689;SDS011;1861;50.240;8.596;2023-04-25T11:26:24;3.70;;;1.63;;
3689;SDS011;1861;50.240;8.596;2023-04-25T11:28:56;6.73;;;1.63;;
3689;SDS011;1861;50.240;8.596;2023-04-25T11:31:26;6.03;;;1.63;;
3689;SDS011;1861;50.240;8.596;2023-04-25T11:33:56;4.63;;;2.20;;
3689;SDS011;1861;50.240;8.596;2023-04-25T11:36:25;3.77;;;1.60;;
3689;SDS011;1861;50.240;8.596;2023-04-25T11:38:53;3.03;;;1.60;;
3689;SDS011;1861;50.240;8.596;2023-04-25T11:41:21;7.97;;;1.90;;
3689;SDS011;1861;50.240;8.596;2023-04-25T11:43:51;2.60;;;1.90;;
3689;SDS011;1861;50.240;8.596;2023-04-25T11:46:22;4.93;;;1.83;;
3689;SDS011;1861;50.240;8.596;2023-04-25T11:48:50;8.87;;;1.53;;
3689;SDS011;1861;50.240;8.596;2023-04-25T11:51:19;3.23;;;1.90;;
3689;SDS011;1861;50.240;8.596;2023-04-25T11:53:48;2.40;;;1.70;;
3689;SDS011;1861;50.240;8.596;2023-04-25T11:56:16;3.20;;;1.80;;
3689;SDS011;1861;50.240;8.596;2023-04-25T11:58:53;6.67;;;2.13;;
3689;SDS011;1861;50.240;8.596;2023-04-25T12:01:27;15.87;;;2.77;;
3689;SDS011;1861;50.240;8.596;2023-04-25T12:04:10;4.13;;;1.87;;
3689;SDS011;1861;50.240;8.596;2023-04-25T12:06:39;6.20;;;2.10;;
3689;SDS011;1861;50.240;8.596;2023-04-25T12:09:09;6.13;;;2.13;;
3689;SDS011;1861;50.240;8.596;2023-04-25T12:11:42;5.30;;;1.90;;
3689;SDS011;1861;50.240;8.596;2023-04-25T12:14:11;7.53;;;3.47;;
3689;SDS011;1861;50.240;8.596;2023-04-25T12:16:41;3.40;;;2.00;;
3689;SDS011;1861;50.240;8.596;2023-04-25T12:19:13;5.13;;;2.33;;
3689;SDS011;1861;50.240;8.596;2023-04-25T12:21:41;5.50;;;2.00;;
3689;SDS011;1861;50.240;8.596;2023-04-25T12:24:16;5.07;;;2.20;;
3689;SDS011;1861;50.240;8.596;2023-04-25T12:26:50;6.70;;;2.30;;
3689;SDS011;1861;50.240;8.596;2023-04-25T12:29:20;3.90;;;2.30;;
3689;SDS011;1861;50.240;8.596;2023-04-25T12:31:54;5.03;;;1.93;;
3689;SDS011;1861;50.240;8.596;2023-04-25T12:34:23;6.73;;;1.63;;
3689;SDS011;1861;50.240;8.596;2023-04-25T12:36:52;7.87;;;2.30;;
3689;SDS011;1861;50.240;8.596;2023-04-25T12:39:21;4.37;;;1.87;;
3689;SDS011;1861;50.240;8.596;2023-04-25T12:41:50;9.10;;;2.90;;
3689;SDS011;1861;50.240;8.596;2023-04-25T12:44:20;3.37;;;1.90;;
3689;SDS011;1861;50.240;8.596;2023-04-25T12:46:48;3.63;;;1.97;;
3689;SDS011;1861;50.240;8.596;2023-04-25T12:49:18;5.10;;;1.80;;
3689;SDS011;1861;50.240;8.596;2023-04-25T12:51:46;7.17;;;2.17;;
3689;SDS011;1861;50.240;8.596;2023-04-25T12:54:14;4.53;;;2.07;;
3689;SDS011;1861;50.240;8.596;2023-04-25T12:56:42;5.63;;;2.10;;
3689;SDS011;1861;50.240;8.596;2023-04-25T12:59:10;3.17;;;2.90;;
3689;SDS011;1861;50.240;8.596;2023-04-25T13:01:39;3.57;;;2.10;;
3689;SDS011;1861;50.240;8.596;2023-04-25T13:04:07;5.03;;;2.60;;
3689;SDS011;1861;50.240;8.596;2023-04-25T13:06:36;6.23;;;2.50;;
3689;SDS011;1861;50.240;8.596;2023-04-25T13:09:05;3.37;;;1.90;;
3689;SDS011;1861;50.240;8.596;2023-04-25T13:11:33;4.60;;;2.80;;
3689;SDS011;1861;50.240;8.596;2023-04-25T13:14:01;2.60;;;1.90;;
3689;SDS011;1861;50.240;8.596;2023-04-25T13:16:30;6.63;;;2.30;;
3689;SDS011;1861;50.240;8.596;2023-04-25T13:18:58;3.17;;;2.27;;
3689;SDS011;1861;50.240;8.596;2023-04-25T13:21:26;2.83;;;2.20;;
3689;SDS011;1861;50.240;8.596;2023-04-25T13:23:55;3.63;;;1.73;;
3689;SDS011;1861;50.240;8.596;2023-04-25T13:26:24;5.37;;;1.70;;
3689;SDS011;1861;50.240;8.596;2023-04-25T13:28:52;2.47;;;2.23;;
3689;SDS011;1861;50.240;8.596;2023-04-25T13:31:20;7.97;;;2.60;;
3689;SDS011;1861;50.240;8.596;2023-04-25T13:33:48;5.77;;;1.83;;
3689;SDS011;1861;50.240;8.596;2023-04-25T13:36:16;7.60;;;2.30;;
3689;SDS011;1861;50.240;8.596;2023-04-25T13:38:44;7.13;;;2.60;;
3689;SDS011;1861;50.240;8.596;2023-04-25T13:41:15;5.60;;;1.80;;
3689;SDS011;1861;50.240;8.596;2023-04-25T13:43:45;5.60;;;2.10;;
3689;SDS011;1861;50.240;8.596;2023-04-25T13:46:15;2.83;;;2.00;;
3689;SDS011;1861;50.240;8.596;2023-04-25T13:49:03;3.33;;;1.87;;
3689;SDS011;1861;50.240;8.596;2023-04-25T13:51:38;7.30;;;2.17;;
3689;SDS011;1861;50.240;8.596;2023-04-25T13:54:07;3.57;;;1.60;;
3689;SDS011;1861;50.240;8.596;2023-04-25T13:56:36;2.37;;;1.60;;
3689;SDS011;1861;50.240;8.596;2023-04-25T13:59:04;4.03;;;1.80;;
3689;SDS011;1861;50.240;8.596;2023-04-25T14:01:32;3.13;;;1.70;;
3689;SDS011;1861;50.240;8.596;2023-04-25T14:04:02;6.40;;;1.63;;
3689;SDS011;1861;50.240;8.596;2023-04-25T14:06:31;9.03;;;1.60;;
3689;SDS011;1861;50.240;8.596;2023-04-25T14:08:59;3.90;;;2.10;;
3689;SDS011;1861;50.240;8.596;2023-04-25T14:11:28;2.17;;;1.40;;
3689;SDS011;1861;50.240;8.596;2023-04-25T14:13:57;4.93;;;2.00;;
3689;SDS011;1861;50.240;8.596;2023-04-25T14:16:25;2.50;;;1.60;;
3689;SDS011;1861;50.240;8.596;2023-04-25T14:18:53;4.90;;;1.83;;
3689;SDS011;1861;50.240;8.596;2023-04-25T14:21:21;3.50;;;1.50;;
3689;SDS011;1861;50.240;8.596;2023-04-25T14:23:49;5.10;;;1.80;;
3689;SDS011;1861;50.240;8.596;2023-04-25T14:26:18;4.97;;;2.07;;
3689;SDS011;1861;50.240;8.596;2023-04-25T14:28:46;4.50;;;1.50;;
3689;SDS011;1861;50.240;8.596;2023-04-25T14:31:15;4.83;;;1.70;;
3689;SDS011;1861;50.240;8.596;2023-04-25T14:33:44;3.00;;;1.87;;
3689;SDS011;1861;50.240;8.596;2023-04-25T14:36:12;3.17;;;1.60;;
3689;SDS011;1861;50.240;8.596;2023-04-25T14:38:40;4.03;;;1.53;;
3689;SDS011;1861;50.240;8.596;2023-04-25T14:41:08;2.43;;;1.70;;
3689;SDS011;1861;50.240;8.596;2023-04-25T14:43:37;3.30;;;1.70;;
3689;SDS011;1861;50.240;8.596;2023-04-25T14:46:06;8.57;;;1.50;;
3689;SDS011;1861;50.240;8.596;2023-04-25T14:48:35;7.83;;;1.40;;
3689;SDS011;1861;50.240;8.596;2023-04-25T14:51:04;3.57;;;1.70;;
3689;SDS011;1861;50.240;8.596;2023-04-25T14:53:32;2.50;;;1.07;;
3689;SDS011;1861;50.240;8.596;2023-04-25T14:56:00;2.70;;;1.20;;
3689;SDS011;1861;50.240;8.596;2023-04-25T14:58:28;4.10;;;1.43;;
3689;SDS011;1861;50.240;8.596;2023-04-25T15:00:57;2.30;;;1.73;;
3689;SDS011;1861;50.240;8.596;2023-04-25T15:03:25;3.00;;;1.63;;
3689;SDS011;1861;50.240;8.596;2023-04-25T15:05:55;4.50;;;1.10;;
3689;SDS011;1861;50.240;8.596;2023-04-25T15:08:23;3.20;;;1.17;;
3689;SDS011;1861;50.240;8.596;2023-04-25T15:10:51;2.70;;;1.33;;
3689;SDS011;1861;50.240;8.596;2023-04-25T15:13:19;5.43;;;1.30;;
3689;SDS011;1861;50.240;8.596;2023-04-25T15:15:48;5.70;;;1.50;;
3689;SDS011;1861;50.240;8.596;2023-04-25T15:18:17;4.00;;;1.60;;
3689;SDS011;1861;50.240;8.596;2023-04-25T15:20:48;2.27;;;1.47;;
3689;SDS011;1861;50.240;8.596;2023-04-25T15:23:19;1.73;;;1.13;;
3689;SDS011;1861;50.240;8.596;2023-04-25T15:25:49;3.00;;;1.20;;
3689;SDS011;1861;50.240;8.596;2023-04-25T15:28:17;7.03;;;1.80;;
3689;SDS011;1861;50.240;8.596;2023-04-25T15:30:47;3.33;;;1.20;;
3689;SDS011;1861;50.240;8.596;2023-04-25T15:33:16;4.33;;;1.33;;
3689;SDS011;1861;50.240;8.596;2023-04-25T15:35:44;5.40;;;1.57;;
3689;SDS011;1861;50.240;8.596;2023-04-25T15:38:13;5.77;;;1.73;;
3689;SDS011;1861;50.240;8.596;2023-04-25T15:40:42;1.80;;;1.43;;
3689;SDS011;1861;50.240;8.596;2023-04-25T15:43:10;1.30;;;1.20;;